createdAt,value
2022-11-17T00:02:01.268Z,4.20
2022-11-17T00:04:31.349Z,4.20
2022-11-17T00:06:59.430Z,4.20
2022-11-17T00:09:26.618Z,4.20
2022-11-17T00:12:12.040Z,4.20
2022-11-17T00:14:41.319Z,4.20
2022-11-17T00:17:11.236Z,4.30
2022-11-17T00:19:58.323Z,4.30
2022-11-17T00:22:25.722Z,4.20
2022-11-17T00:24:53.891Z,4.20
2022-11-17T00:27:21.914Z,4.20
2022-11-17T00:29:50.979Z,4.20
2022-11-17T00:32:38.208Z,4.20
2022-11-17T00:35:06.583Z,4.10
2022-11-17T00:37:38.863Z,4.20
2022-11-17T00:40:06.693Z,4.20
2022-11-17T00:42:34.633Z,4.10
2022-11-17T00:45:01.789Z,4.10
2022-11-17T00:47:28.908Z,4.10
2022-11-17T00:49:56.115Z,4.10
2022-11-17T00:52:23.237Z,4.10
2022-11-17T00:54:50.455Z,4.10
2022-11-17T00:57:17.512Z,4.10
2022-11-17T00:59:44.689Z,4.10
2022-11-17T01:02:11.831Z,4.10
2022-11-17T01:04:39.065Z,4.00
2022-11-17T01:07:05.983Z,4.10
2022-11-17T01:09:33.173Z,4.00
2022-11-17T01:12:01.329Z,4.00
2022-11-17T01:14:30.580Z,4.00
2022-11-17T01:16:57.524Z,4.00
2022-11-17T01:19:25.085Z,4.00
2022-11-17T01:21:53.261Z,3.90
2022-11-17T01:24:20.448Z,3.90
2022-11-17T01:26:47.869Z,3.90
2022-11-17T01:29:18.953Z,3.80
2022-11-17T01:31:50.654Z,3.80
2022-11-17T01:34:18.060Z,3.80
2022-11-17T01:37:03.499Z,3.80
2022-11-17T01:39:31.963Z,3.80
2022-11-17T01:42:04.609Z,3.70
2022-11-17T01:44:59.086Z,3.70
2022-11-17T01:47:29.410Z,3.70
2022-11-17T01:50:37.863Z,3.70
2022-11-17T01:53:14.438Z,3.60
2022-11-17T01:55:52.227Z,3.60
2022-11-17T01:58:29.813Z,3.60
2022-11-17T02:00:56.841Z,3.60
2022-11-17T02:03:26.186Z,3.60
2022-11-17T02:06:05.416Z,3.60
2022-11-17T02:08:33.626Z,3.50
2022-11-17T02:11:04.165Z,3.60
2022-11-17T02:13:31.100Z,3.50
2022-11-17T02:15:57.900Z,3.50
2022-11-17T02:18:25.151Z,3.60
2022-11-17T02:21:00.111Z,3.50
2022-11-17T02:23:42.570Z,3.50
2022-11-17T02:26:22.002Z,3.50
2022-11-17T02:29:11.447Z,3.50
2022-11-17T02:31:58.478Z,3.40
2022-11-17T02:34:36.081Z,3.50
2022-11-17T02:37:19.374Z,3.40
2022-11-17T02:40:32.532Z,3.40
2022-11-17T02:43:29.533Z,3.40
2022-11-17T02:46:16.334Z,3.30
2022-11-17T02:48:51.131Z,3.30
2022-11-17T02:51:23.854Z,3.30
2022-11-17T02:53:54.343Z,3.20
2022-11-17T02:56:21.560Z,3.30
2022-11-17T02:58:53.032Z,3.20
2022-11-17T03:01:22.638Z,3.20
2022-11-17T03:04:08.078Z,3.20
2022-11-17T03:06:49.447Z,3.20
2022-11-17T03:09:39.010Z,3.20
2022-11-17T03:12:13.732Z,3.20
2022-11-17T03:15:12.289Z,3.10
2022-11-17T03:17:57.837Z,3.10
2022-11-17T03:20:43.800Z,3.10
2022-11-17T03:23:18.130Z,3.10
2022-11-17T03:25:49.333Z,3.10
2022-11-17T03:28:18.740Z,3.10
2022-11-17T03:30:47.914Z,3.20
2022-11-17T03:33:19.823Z,3.10
2022-11-17T03:36:02.654Z,3.10
2022-11-17T03:38:35.168Z,3.10
2022-11-17T03:41:05.700Z,3.10
2022-11-17T03:43:34.003Z,3.10
2022-11-17T03:46:11.956Z,3.10
2022-11-17T03:48:58.992Z,3.10
2022-11-17T03:51:30.752Z,3.10
2022-11-17T03:53:57.858Z,3.10
2022-11-17T03:56:36.773Z,3.20
2022-11-17T03:59:11.748Z,3.10
2022-11-17T04:01:38.742Z,3.10
2022-11-17T04:04:05.773Z,3.20
2022-11-17T04:06:32.893Z,3.10
2022-11-17T04:08:59.682Z,3.10
2022-11-17T04:11:45.152Z,3.10
2022-11-17T04:14:30.541Z,3.10
2022-11-17T04:16:57.375Z,3.10
2022-11-17T04:19:24.263Z,3.10
2022-11-17T04:21:52.308Z,3.10
2022-11-17T04:24:19.191Z,3.10
2022-11-17T04:27:04.381Z,3.10
2022-11-17T04:29:31.343Z,3.10
2022-11-17T04:31:58.115Z,3.10
2022-11-17T04:34:24.964Z,3.10
2022-11-17T04:36:51.831Z,3.10
2022-11-17T04:39:18.856Z,3.10
2022-11-17T04:41:54.699Z,3.00
2022-11-17T04:44:29.617Z,3.00
2022-11-17T04:46:57.644Z,3.00
2022-11-17T04:49:25.727Z,3.00
2022-11-17T04:51:53.680Z,2.90
2022-11-17T04:54:24.541Z,2.90
2022-11-17T04:56:53.095Z,3.00
2022-11-17T04:59:20.547Z,3.00
2022-11-17T05:01:48.362Z,2.90
2022-11-17T05:04:38.309Z,2.80
2022-11-17T05:07:06.224Z,2.90
2022-11-17T05:09:33.164Z,2.90
2022-11-17T05:12:18.352Z,2.90
2022-11-17T05:14:47.690Z,2.90
2022-11-17T05:17:14.549Z,2.90
2022-11-17T05:19:46.268Z,2.90
2022-11-17T05:22:34.592Z,2.90
2022-11-17T05:25:01.501Z,2.80
2022-11-17T05:27:29.700Z,2.80
2022-11-17T05:29:57.686Z,2.80
2022-11-17T05:32:25.676Z,2.80
2022-11-17T05:34:52.630Z,2.90
2022-11-17T05:37:19.782Z,2.80
2022-11-17T05:39:46.547Z,2.80
2022-11-17T05:42:13.379Z,2.80
2022-11-17T05:44:40.268Z,2.80
2022-11-17T05:47:07.134Z,2.90
2022-11-17T05:49:34.294Z,2.80
2022-11-17T05:52:01.348Z,2.70
2022-11-17T05:54:28.198Z,2.70
2022-11-17T05:57:10.502Z,2.70
2022-11-17T05:59:40.250Z,2.60
2022-11-17T06:02:15.940Z,2.60
2022-11-17T06:04:44.218Z,2.70
2022-11-17T06:07:11.345Z,2.70
2022-11-17T06:09:41.642Z,2.70
2022-11-17T06:12:09.021Z,2.70
2022-11-17T06:14:37.632Z,2.70
2022-11-17T06:17:09.466Z,2.70
2022-11-17T06:19:45.276Z,2.70
2022-11-17T06:22:13.525Z,2.70
2022-11-17T06:24:43.022Z,2.70
2022-11-17T06:27:11.871Z,2.70
2022-11-17T06:29:43.964Z,2.80
2022-11-17T06:32:13.436Z,2.80
2022-11-17T06:34:40.534Z,2.80
2022-11-17T06:37:07.291Z,2.80
2022-11-17T06:39:34.025Z,2.80
2022-11-17T06:42:00.782Z,2.80
2022-11-17T06:44:27.517Z,2.80
2022-11-17T06:46:54.275Z,2.80
2022-11-17T06:49:21.038Z,2.80
2022-11-17T06:51:47.982Z,2.80
2022-11-17T06:54:15.051Z,2.80
2022-11-17T06:56:42.341Z,2.90
2022-11-17T06:59:09.144Z,2.90
2022-11-17T07:01:37.205Z,2.90
2022-11-17T07:04:04.460Z,2.90
2022-11-17T07:06:32.324Z,2.90
2022-11-17T07:08:59.122Z,2.90
2022-11-17T07:11:25.970Z,2.90
2022-11-17T07:13:52.710Z,2.90
2022-11-17T07:16:23.477Z,2.90
2022-11-17T07:18:52.059Z,2.90
2022-11-17T07:21:18.897Z,3.00
2022-11-17T07:23:46.160Z,3.00
2022-11-17T07:26:14.470Z,2.90
2022-11-17T07:28:41.779Z,3.00
2022-11-17T07:31:09.416Z,3.00
2022-11-17T07:33:37.295Z,3.00
2022-11-17T07:36:06.691Z,3.00
2022-11-17T07:38:35.145Z,2.90
2022-11-17T07:41:03.453Z,2.90
2022-11-17T07:43:30.305Z,2.90
2022-11-17T07:45:57.533Z,3.00
2022-11-17T07:48:24.508Z,2.90
2022-11-17T07:50:51.310Z,2.90
2022-11-17T07:53:18.256Z,2.90
2022-11-17T07:55:45.411Z,3.00
2022-11-17T07:58:12.226Z,3.00
2022-11-17T08:00:39.058Z,3.00
2022-11-17T08:03:06.203Z,3.00
2022-11-17T08:05:41.606Z,3.00
2022-11-17T08:08:10.483Z,3.00
2022-11-17T08:10:37.249Z,3.00
2022-11-17T08:13:04.541Z,3.00
2022-11-17T08:15:31.964Z,3.00
2022-11-17T08:18:00.539Z,3.00
2022-11-17T08:20:29.382Z,3.10
2022-11-17T08:22:56.633Z,3.00
2022-11-17T08:25:25.755Z,3.00
2022-11-17T08:27:58.899Z,3.00
2022-11-17T08:30:26.892Z,2.90
2022-11-17T08:32:54.761Z,2.90
2022-11-17T08:35:24.547Z,2.90
2022-11-17T08:37:52.093Z,2.90
2022-11-17T08:40:19.737Z,2.80
2022-11-17T08:42:47.318Z,2.90
2022-11-17T08:45:14.417Z,2.90
2022-11-17T08:47:41.247Z,2.80
2022-11-17T08:50:08.729Z,2.80
2022-11-17T08:52:35.621Z,2.80
2022-11-17T08:55:02.696Z,2.80
2022-11-17T08:57:30.389Z,2.80
2022-11-17T08:59:57.398Z,2.80
2022-11-17T09:02:24.213Z,2.70
2022-11-17T09:04:50.975Z,2.80
2022-11-17T09:07:18.350Z,2.70
2022-11-17T09:09:46.359Z,2.80
2022-11-17T09:12:13.150Z,2.80
2022-11-17T09:14:40.023Z,2.80
2022-11-17T09:17:08.057Z,2.80
2022-11-17T09:19:34.810Z,2.70
2022-11-17T09:22:01.558Z,2.70
2022-11-17T09:24:28.354Z,2.70
2022-11-17T09:26:57.374Z,2.80
2022-11-17T09:29:24.570Z,2.80
2022-11-17T09:31:51.419Z,2.80
2022-11-17T09:34:18.303Z,2.80
2022-11-17T09:36:45.143Z,2.80
2022-11-17T09:39:11.971Z,2.90
2022-11-17T09:41:46.029Z,3.00
2022-11-17T09:44:42.510Z,2.90
2022-11-17T09:47:43.722Z,2.90
2022-11-17T09:50:34.782Z,3.00
2022-11-17T09:53:04.944Z,2.90
2022-11-17T09:55:37.768Z,2.90
2022-11-17T09:58:48.015Z,2.90
2022-11-17T10:01:17.753Z,2.80
2022-11-17T10:03:47.858Z,2.80
2022-11-17T10:06:19.383Z,2.70
2022-11-17T10:08:46.109Z,2.70
2022-11-17T10:11:35.200Z,3.10
2022-11-17T10:14:15.099Z,2.80
2022-11-17T10:16:56.894Z,2.80
2022-11-17T10:19:24.846Z,2.80
2022-11-17T10:22:11.733Z,2.80
2022-11-17T10:24:42.169Z,2.80
2022-11-17T10:27:17.822Z,2.90
2022-11-17T10:30:07.017Z,2.90
2022-11-17T10:32:42.683Z,2.90
2022-11-17T10:35:18.200Z,2.80
2022-11-17T10:37:55.424Z,2.80
2022-11-17T10:40:43.921Z,2.70
2022-11-17T10:43:13.792Z,2.70
2022-11-17T10:45:48.634Z,2.70
2022-11-17T10:48:38.690Z,2.70
2022-11-17T10:51:10.528Z,2.70
2022-11-17T10:53:45.625Z,2.70
2022-11-17T10:56:21.757Z,2.70
2022-11-17T10:59:15.218Z,2.70
2022-11-17T11:01:44.369Z,2.70
2022-11-17T11:04:26.630Z,2.80
2022-11-17T11:07:06.533Z,2.80
2022-11-17T11:09:35.790Z,2.80
2022-11-17T11:12:04.836Z,2.90
2022-11-17T11:14:46.552Z,2.80
2022-11-17T11:17:15.904Z,2.80
2022-11-17T11:19:47.640Z,2.80
2022-11-17T11:22:33.247Z,2.90
2022-11-17T11:25:33.624Z,2.90
2022-11-17T11:28:31.563Z,2.80
2022-11-17T11:31:15.734Z,2.80
2022-11-17T11:33:50.850Z,2.80
2022-11-17T11:36:20.637Z,2.80
2022-11-17T11:39:00.409Z,2.70
2022-11-17T11:41:47.824Z,2.70
2022-11-17T11:44:46.498Z,2.60
2022-11-17T11:47:22.389Z,2.50
2022-11-17T11:49:54.854Z,2.50
2022-11-17T11:52:25.771Z,2.70
2022-11-17T11:55:06.336Z,2.50
2022-11-17T11:57:40.085Z,2.50
2022-11-17T12:00:15.887Z,2.50
2022-11-17T12:03:25.122Z,2.50
2022-11-17T12:06:39.227Z,2.50
2022-11-17T12:09:24.136Z,2.50
2022-11-17T12:12:01.919Z,2.60
2022-11-17T12:14:33.429Z,2.50
2022-11-17T12:17:26.217Z,2.50
2022-11-17T12:19:57.599Z,2.60
2022-11-17T12:22:42.916Z,2.60
2022-11-17T12:25:18.180Z,2.60
2022-11-17T12:27:50.311Z,2.60
2022-11-17T12:30:36.711Z,2.60
2022-11-17T12:33:05.397Z,2.60
2022-11-17T12:35:37.440Z,2.60
2022-11-17T12:38:20.132Z,2.60
2022-11-17T12:40:52.115Z,2.60
2022-11-17T12:43:24.299Z,2.70
2022-11-17T12:45:59.887Z,2.70
2022-11-17T12:48:34.395Z,2.70
2022-11-17T12:51:39.266Z,2.70
2022-11-17T12:54:39.509Z,2.70
2022-11-17T12:57:10.083Z,2.70
2022-11-17T12:59:45.671Z,2.70
2022-11-17T13:02:39.586Z,2.70
2022-11-17T13:05:27.820Z,2.70
2022-11-17T13:08:13.418Z,2.70
2022-11-17T13:10:40.605Z,2.70
2022-11-17T13:13:17.138Z,2.70
2022-11-17T13:15:45.389Z,2.60
2022-11-17T13:18:23.658Z,2.60
2022-11-17T13:20:50.507Z,2.60
2022-11-17T13:23:26.026Z,2.60
2022-11-17T13:26:19.909Z,2.60
2022-11-17T13:28:47.948Z,2.60
2022-11-17T13:31:23.924Z,2.60
2022-11-17T13:34:23.623Z,2.60
2022-11-17T13:36:55.751Z,2.60
2022-11-17T13:39:27.094Z,2.60
2022-11-17T13:41:55.699Z,2.60
2022-11-17T13:44:25.184Z,2.60
2022-11-17T13:46:52.138Z,2.60
2022-11-17T13:49:38.736Z,2.60
2022-11-17T13:52:13.953Z,2.60
2022-11-17T13:54:45.009Z,2.60
2022-11-17T13:57:25.379Z,2.60
2022-11-17T13:59:52.522Z,2.60
2022-11-17T14:02:19.388Z,2.60
2022-11-17T14:05:10.701Z,2.60
2022-11-17T14:07:42.060Z,2.60
2022-11-17T14:10:20.369Z,2.60
2022-11-17T14:12:47.937Z,2.60
2022-11-17T14:15:25.892Z,2.60
2022-11-17T14:17:58.812Z,2.60
2022-11-17T14:20:34.246Z,2.60
2022-11-17T14:23:15.997Z,2.50
2022-11-17T14:25:44.755Z,2.50
2022-11-17T14:28:16.900Z,2.50
2022-11-17T14:30:44.242Z,2.50
2022-11-17T14:33:13.823Z,2.50
2022-11-17T14:35:41.541Z,2.40
2022-11-17T14:38:15.854Z,2.40
2022-11-17T14:40:42.699Z,2.30
2022-11-17T14:43:09.510Z,2.30
2022-11-17T14:45:36.459Z,2.30
2022-11-17T14:48:06.023Z,2.20
2022-11-17T14:50:33.528Z,2.20
2022-11-17T14:53:00.285Z,2.20
2022-11-17T14:55:27.802Z,2.10
2022-11-17T14:57:54.701Z,2.10
2022-11-17T15:00:21.763Z,2.00
2022-11-17T15:02:48.789Z,1.90
2022-11-17T15:05:15.742Z,1.80
2022-11-17T15:07:45.553Z,1.60
2022-11-17T15:10:12.641Z,1.60
2022-11-17T15:12:39.425Z,1.50
2022-11-17T15:15:06.729Z,1.40
2022-11-17T15:17:34.489Z,1.30
2022-11-17T15:20:01.249Z,1.30
2022-11-17T15:22:28.602Z,1.20
2022-11-17T15:24:55.356Z,1.20
2022-11-17T15:27:22.107Z,1.10
2022-11-17T15:29:48.991Z,1.10
2022-11-17T15:32:15.791Z,1.00
2022-11-17T15:34:42.592Z,0.90
2022-11-17T15:37:09.464Z,1.00
2022-11-17T15:39:36.486Z,1.00
2022-11-17T15:42:03.299Z,1.00
2022-11-17T15:44:30.127Z,1.00
2022-11-17T15:46:56.928Z,1.00
2022-11-17T15:49:23.702Z,1.10
2022-11-17T15:51:50.449Z,1.10
2022-11-17T15:54:20.591Z,1.10
2022-11-17T15:56:47.977Z,1.20
2022-11-17T15:59:15.204Z,1.10
2022-11-17T16:01:42.450Z,1.10
2022-11-17T16:04:11.515Z,1.10
2022-11-17T16:06:41.208Z,1.10
2022-11-17T16:09:08.552Z,1.10
2022-11-17T16:11:36.395Z,1.10
2022-11-17T16:14:03.722Z,1.10
2022-11-17T16:16:33.009Z,1.20
2022-11-17T16:19:00.166Z,1.20
2022-11-17T16:21:26.950Z,1.20
2022-11-17T16:23:55.834Z,1.20
2022-11-17T16:26:26.174Z,1.20
2022-11-17T16:29:11.590Z,1.20
2022-11-17T16:31:39.111Z,1.20
2022-11-17T16:34:11.949Z,1.20
2022-11-17T16:36:40.193Z,1.10
2022-11-17T16:39:13.253Z,1.10
2022-11-17T16:41:42.267Z,1.00
2022-11-17T16:44:14.270Z,1.00
2022-11-17T16:46:46.944Z,0.90
2022-11-17T16:49:16.494Z,0.80
2022-11-17T16:51:51.697Z,0.80
2022-11-17T16:54:19.659Z,0.70
2022-11-17T16:56:46.734Z,0.70
2022-11-17T16:59:14.818Z,0.60
2022-11-17T17:01:41.970Z,0.50
2022-11-17T17:04:10.962Z,0.40
2022-11-17T17:06:43.824Z,0.40
2022-11-17T17:09:12.536Z,0.30
2022-11-17T17:11:39.910Z,0.30
2022-11-17T17:14:09.697Z,0.20
2022-11-17T17:16:38.151Z,0.20
2022-11-17T17:19:07.286Z,0.20
2022-11-17T17:21:35.437Z,0.20
2022-11-17T17:24:03.327Z,0.20
2022-11-17T17:26:32.939Z,0.20
2022-11-17T17:29:00.915Z,0.20
2022-11-17T17:31:34.614Z,0.30
2022-11-17T17:34:01.736Z,0.30
2022-11-17T17:36:28.933Z,0.40
2022-11-17T17:38:57.724Z,0.50
2022-11-17T17:41:26.971Z,0.60
2022-11-17T17:44:02.646Z,0.70
2022-11-17T17:46:30.731Z,0.70
2022-11-17T17:48:58.138Z,0.70
2022-11-17T17:51:27.356Z,0.80
2022-11-17T17:53:55.978Z,0.80
2022-11-17T17:56:23.574Z,0.70
2022-11-17T17:58:51.830Z,0.70
2022-11-17T18:01:24.527Z,0.70
2022-11-17T18:03:53.829Z,0.70
2022-11-17T18:06:22.305Z,0.70
2022-11-17T18:08:49.954Z,0.70
2022-11-17T18:11:19.926Z,0.60
2022-11-17T18:13:49.102Z,0.60
2022-11-17T18:16:36.085Z,0.60
2022-11-17T18:19:06.353Z,0.60
2022-11-17T18:21:33.417Z,0.50
2022-11-17T18:24:02.005Z,0.50
2022-11-17T18:26:31.825Z,0.40
2022-11-17T18:29:01.273Z,0.40
2022-11-17T18:31:30.469Z,0.40
2022-11-17T18:34:06.241Z,0.30
2022-11-17T18:36:33.197Z,0.30
2022-11-17T18:39:00.490Z,0.30
2022-11-17T18:41:30.675Z,0.30
2022-11-17T18:43:57.897Z,0.30
2022-11-17T18:46:25.818Z,0.30
2022-11-17T18:48:52.979Z,0.30
2022-11-17T18:51:25.615Z,0.30
2022-11-17T18:53:54.088Z,0.30
2022-11-17T18:56:23.156Z,0.30
2022-11-17T18:58:50.680Z,0.60
2022-11-17T19:01:19.930Z,0.30
2022-11-17T19:03:48.741Z,0.30
2022-11-17T19:06:16.737Z,0.30
2022-11-17T19:08:43.753Z,0.30
2022-11-17T19:11:11.801Z,0.30
2022-11-17T19:13:40.096Z,0.30
2022-11-17T19:16:17.372Z,0.30
2022-11-17T19:18:46.771Z,0.30
2022-11-17T19:21:16.225Z,0.30
2022-11-17T19:23:50.801Z,0.30
2022-11-17T19:26:23.554Z,0.30
2022-11-17T19:28:59.188Z,0.30
2022-11-17T19:31:26.927Z,0.30
2022-11-17T19:33:56.203Z,0.30
2022-11-17T19:36:29.701Z,0.30
2022-11-17T19:38:59.123Z,0.20
2022-11-17T19:41:34.644Z,0.20
2022-11-17T19:44:06.867Z,0.20
2022-11-17T19:46:36.155Z,0.20
2022-11-17T19:49:04.314Z,0.20
2022-11-17T19:51:33.521Z,0.20
2022-11-17T19:54:06.134Z,0.20
2022-11-17T19:56:33.481Z,0.20
2022-11-17T19:59:01.583Z,0.20
2022-11-17T20:01:30.740Z,0.20
2022-11-17T20:04:00.258Z,0.20
2022-11-17T20:06:30.462Z,0.20
2022-11-17T20:08:57.593Z,0.20
2022-11-17T20:11:26.923Z,0.20
2022-11-17T20:13:54.616Z,0.20
2022-11-17T20:16:26.713Z,0.20
2022-11-17T20:18:58.611Z,0.20
2022-11-17T20:21:27.546Z,0.20
2022-11-17T20:23:55.531Z,0.20
2022-11-17T20:26:26.626Z,0.20
2022-11-17T20:28:53.917Z,0.20
2022-11-17T20:31:26.014Z,0.20
2022-11-17T20:33:56.454Z,0.20
2022-11-17T20:36:23.742Z,0.20
2022-11-17T20:38:51.833Z,0.20
2022-11-17T20:41:20.788Z,0.10
2022-11-17T20:43:48.975Z,0.10
2022-11-17T20:46:15.971Z,0.10
2022-11-17T20:48:43.134Z,0.10
2022-11-17T20:51:12.341Z,0.00
2022-11-17T20:53:39.504Z,0.00
2022-11-17T20:56:08.718Z,0.00
2022-11-17T20:58:36.102Z,0.00
2022-11-17T21:01:21.136Z,0.00
2022-11-17T21:03:48.327Z,0.00
2022-11-17T21:06:16.082Z,0.00
2022-11-17T21:08:44.523Z,0.20
2022-11-17T21:11:32.353Z,0.00
2022-11-17T21:13:59.454Z,0.00
2022-11-17T21:16:26.301Z,0.10
2022-11-17T21:18:53.253Z,0.00
2022-11-17T21:21:20.027Z,0.00
2022-11-17T21:23:46.763Z,0.00
2022-11-17T21:26:19.911Z,0.00
2022-11-17T21:28:47.148Z,0.00
2022-11-17T21:31:19.608Z,0.00
2022-11-17T21:33:47.175Z,0.10
2022-11-17T21:36:16.223Z,-0.10
2022-11-17T21:38:44.619Z,0.60
2022-11-17T21:41:16.711Z,-0.20
2022-11-17T21:43:45.426Z,-0.30
2022-11-17T21:46:15.494Z,-0.30
2022-11-17T21:48:42.811Z,-0.30
2022-11-17T21:51:28.160Z,0.20
2022-11-17T21:53:57.739Z,-0.50
2022-11-17T21:56:27.024Z,0.20
2022-11-17T21:59:05.451Z,-0.60
2022-11-17T22:01:33.185Z,-0.60
2022-11-17T22:04:00.246Z,0.70
2022-11-17T22:06:27.427Z,-0.80
2022-11-17T22:08:55.820Z,0.90
2022-11-17T22:11:37.777Z,-0.90
2022-11-17T22:14:06.232Z,-1.00
2022-11-17T22:16:34.377Z,-1.00
2022-11-17T22:19:01.337Z,-1.00
2022-11-17T22:21:28.285Z,-1.00
2022-11-17T22:23:55.253Z,-0.40
2022-11-17T22:26:22.399Z,-0.30
2022-11-17T22:28:53.697Z,-0.40
2022-11-17T22:31:21.544Z,-1.30
2022-11-17T22:33:49.646Z,-0.20
2022-11-17T22:36:16.916Z,-1.40
2022-11-17T22:38:43.960Z,-1.40
2022-11-17T22:41:12.478Z,-0.60
2022-11-17T22:43:39.428Z,-0.20
2022-11-17T22:46:09.770Z,-0.60
2022-11-17T22:48:37.526Z,-1.70
2022-11-17T22:51:05.536Z,-1.60
2022-11-17T22:53:33.896Z,-1.60
2022-11-17T22:56:08.281Z,-1.60
2022-11-17T22:58:35.166Z,-1.20
2022-11-17T23:01:07.594Z,-1.40
2022-11-17T23:03:34.469Z,-2.00
2022-11-17T23:06:03.445Z,-0.50
2022-11-17T23:08:30.771Z,-1.00
2022-11-17T23:13:52.927Z,-1.80
2022-11-17T23:16:19.767Z,-1.80
2022-11-17T23:18:46.613Z,-1.90
2022-11-17T23:21:13.947Z,-2.00
2022-11-17T23:23:41.122Z,-0.40
2022-11-17T23:26:10.312Z,-2.00
2022-11-17T23:28:41.417Z,-0.80
2022-11-17T23:31:11.497Z,-2.00
2022-11-17T23:33:43.200Z,-2.00
2022-11-17T23:36:19.711Z,-2.10
2022-11-17T23:38:47.443Z,-2.00
2022-11-17T23:41:16.268Z,-2.10
2022-11-17T23:43:43.705Z,-2.10
2022-11-17T23:46:18.320Z,-2.10
2022-11-17T23:48:45.561Z,-2.10
2022-11-17T23:51:15.825Z,-2.10
2022-11-17T23:53:43.126Z,-2.10
2022-11-17T23:56:10.758Z,-2.00
2022-11-17T23:58:38.140Z,-1.90
